El Arahal, Spain
Current Conditions -  °F | °C
As of 1:00 AM on Saturday 29 Nov 2014 (Local Time) from LEMO Reporting Station
Few Clouds Few Clouds  
Wind Chill: 52°   Ceiling: Unl
Heat Index: 52°   Visibility: 6mi
Dew Point: 48°   Wind: 1mph
Humidity: 88%   Direction: 70°ENE
Pressure: 29.23"   Gusts: NA
Location:  37.26°N, 5.55°W
Report Text: LEMO 290000Z 07001KT 9999 FEW040 11/09 Q0990 RERA NOSIG
Loading
Personal Weather Stations






























Interactive Weather Map New forecast layout! Learn more

10-Day Weather Forecast

Advertisements
Track Severe Weather on mobile